sensor_id;sensor_type;location;lat;lon;timestamp;pressure;altitude;pressure_sealevel;temperature;humidity
46583;BME280;32309;48.858;8.252;2023-02-28T00:00:51;101146.53;;;-1.40;62.34
46583;BME280;32309;48.858;8.252;2023-02-28T00:02:51;101143.16;;;-1.44;62.09
46583;BME280;32309;48.858;8.252;2023-02-28T00:04:51;101143.97;;;-1.43;62.13
46583;BME280;32309;48.858;8.252;2023-02-28T00:07:00;101142.31;;;-1.37;62.32
46583;BME280;32309;48.858;8.252;2023-02-28T00:09:01;101148.22;;;-1.44;62.11
46583;BME280;32309;48.858;8.252;2023-02-28T00:11:05;101144.81;;;-1.49;62.62
46583;BME280;32309;48.858;8.252;2023-02-28T00:13:07;101137.13;;;-1.52;62.61
46583;BME280;32309;48.858;8.252;2023-02-28T00:15:08;101143.06;;;-1.55;62.66
46583;BME280;32309;48.858;8.252;2023-02-28T00:17:10;101141.34;;;-1.59;62.97
46583;BME280;32309;48.858;8.252;2023-02-28T00:19:10;101147.28;;;-1.57;62.77
46583;BME280;32309;48.858;8.252;2023-02-28T00:21:13;101144.75;;;-1.58;63.52
46583;BME280;32309;48.858;8.252;2023-02-28T00:23:14;101144.72;;;-1.61;63.21
46583;BME280;32309;48.858;8.252;2023-02-28T00:25:15;101137.91;;;-1.65;63.33
46583;BME280;32309;48.858;8.252;2023-02-28T00:27:17;101135.34;;;-1.67;63.32
46583;BME280;32309;48.858;8.252;2023-02-28T00:29:17;101146.38;;;-1.67;63.42
46583;BME280;32309;48.858;8.252;2023-02-28T00:31:17;101141.31;;;-1.65;63.09
46583;BME280;32309;48.858;8.252;2023-02-28T00:33:18;101144.69;;;-1.66;63.39
46583;BME280;32309;48.858;8.252;2023-02-28T00:35:18;101140.50;;;-1.61;63.24
46583;BME280;32309;48.858;8.252;2023-02-28T00:37:18;101142.13;;;-1.68;63.61
46583;BME280;32309;48.858;8.252;2023-02-28T00:39:18;101142.91;;;-1.75;63.87
46583;BME280;32309;48.858;8.252;2023-02-28T00:41:19;101147.13;;;-1.78;63.73
46583;BME280;32309;48.858;8.252;2023-02-28T00:43:19;101145.41;;;-1.84;64.14
46583;BME280;32309;48.858;8.252;2023-02-28T00:45:19;101146.22;;;-1.84;64.20
46583;BME280;32309;48.858;8.252;2023-02-28T00:47:20;101145.41;;;-1.82;63.83
46583;BME280;32309;48.858;8.252;2023-02-28T00:49:20;101140.31;;;-1.87;64.07
46583;BME280;32309;48.858;8.252;2023-02-28T00:51:20;101141.97;;;-1.91;64.42
46583;BME280;32309;48.858;8.252;2023-02-28T00:53:21;101143.69;;;-1.87;64.22
46583;BME280;32309;48.858;8.252;2023-02-28T00:55:21;101144.50;;;-1.88;64.13
46583;BME280;32309;48.858;8.252;2023-02-28T00:57:22;101146.19;;;-1.91;64.07
46583;BME280;32309;48.858;8.252;2023-02-28T00:59:22;101147.88;;;-1.93;64.49
46583;BME280;32309;48.858;8.252;2023-02-28T01:01:23;101140.31;;;-1.87;64.58
46583;BME280;32309;48.858;8.252;2023-02-28T01:03:23;101144.50;;;-1.91;64.29
46583;BME280;32309;48.858;8.252;2023-02-28T01:05:23;101135.16;;;-1.92;64.40
46583;BME280;32309;48.858;8.252;2023-02-28T01:07:24;101141.13;;;-1.91;64.23
46583;BME280;32309;48.858;8.252;2023-02-28T01:09:24;101138.53;;;-1.93;64.46
46583;BME280;32309;48.858;8.252;2023-02-28T01:11:24;101134.28;;;-1.98;64.71
46583;BME280;32309;48.858;8.252;2023-02-28T01:13:25;101130.84;;;-2.02;64.78
46583;BME280;32309;48.858;8.252;2023-02-28T01:15:25;101137.69;;;-1.98;64.52
46583;BME280;32309;48.858;8.252;2023-02-28T01:17:25;101136.88;;;-1.92;64.73
46583;BME280;32309;48.858;8.252;2023-02-28T01:19:26;101145.25;;;-1.99;64.90
46583;BME280;32309;48.858;8.252;2023-02-28T01:21:29;101137.63;;;-1.99;65.00
46583;BME280;32309;48.858;8.252;2023-02-28T01:23:30;101136.78;;;-2.02;65.12
46583;BME280;32309;48.858;8.252;2023-02-28T01:25:30;101141.81;;;-2.06;64.99
46583;BME280;32309;48.858;8.252;2023-02-28T01:27:31;101135.03;;;-2.07;65.37
46583;BME280;32309;48.858;8.252;2023-02-28T01:29:31;101136.75;;;-2.05;64.66
46583;BME280;32309;48.858;8.252;2023-02-28T01:31:31;101134.19;;;-2.06;65.10
46583;BME280;32309;48.858;8.252;2023-02-28T01:33:32;101137.56;;;-2.07;65.39
46583;BME280;32309;48.858;8.252;2023-02-28T01:35:33;101136.75;;;-2.06;65.36
46583;BME280;32309;48.858;8.252;2023-02-28T01:37:34;101137.56;;;-2.07;64.95
46583;BME280;32309;48.858;8.252;2023-02-28T01:39:34;101138.50;;;-2.01;64.89
46583;BME280;32309;48.858;8.252;2023-02-28T01:41:34;101131.63;;;-2.11;64.94
46583;BME280;32309;48.858;8.252;2023-02-28T01:45:44;101135.88;;;-2.10;64.98
46583;BME280;32309;48.858;8.252;2023-02-28T01:47:44;101136.72;;;-2.09;65.31
46583;BME280;32309;48.858;8.252;2023-02-28T01:49:45;101127.44;;;-2.06;64.99
46583;BME280;32309;48.858;8.252;2023-02-28T01:51:50;101136.78;;;-2.02;65.16
46583;BME280;32309;48.858;8.252;2023-02-28T01:53:55;101140.13;;;-2.07;65.42
46583;BME280;32309;48.858;8.252;2023-02-28T01:56:00;101133.38;;;-2.07;65.05
46583;BME280;32309;48.858;8.252;2023-02-28T01:58:03;101136.72;;;-2.11;65.41
46583;BME280;32309;48.858;8.252;2023-02-28T02:00:13;101137.56;;;-2.10;65.86
46583;BME280;32309;48.858;8.252;2023-02-28T02:02:15;101127.34;;;-2.17;65.71
46583;BME280;32309;48.858;8.252;2023-02-28T02:04:17;101127.38;;;-2.15;66.07
46583;BME280;32309;48.858;8.252;2023-02-28T02:06:19;101121.47;;;-2.12;65.95
46583;BME280;32309;48.858;8.252;2023-02-28T02:08:20;101125.63;;;-2.19;66.41
46583;BME280;32309;48.858;8.252;2023-02-28T02:10:29;101124.78;;;-2.17;66.00
46583;BME280;32309;48.858;8.252;2023-02-28T02:15:12;101118.88;;;-2.19;66.10
46583;BME280;32309;48.858;8.252;2023-02-28T02:17:22;101115.44;;;-2.22;66.26
46583;BME280;32309;48.858;8.252;2023-02-28T02:22:06;101117.09;;;-2.26;66.38
46583;BME280;32309;48.858;8.252;2023-02-28T02:36:24;101119.63;;;-2.29;67.34
46583;BME280;32309;48.858;8.252;2023-02-28T02:40:44;101122.97;;;-2.33;67.31
46583;BME280;32309;48.858;8.252;2023-02-28T02:42:49;101120.41;;;-2.36;66.96
46583;BME280;32309;48.858;8.252;2023-02-28T02:45:05;101116.13;;;-2.40;67.85
46583;BME280;32309;48.858;8.252;2023-02-28T02:47:10;101116.16;;;-2.39;67.72
46583;BME280;32309;48.858;8.252;2023-02-28T02:49:16;101117.81;;;-2.42;68.03
46583;BME280;32309;48.858;8.252;2023-02-28T02:51:22;101120.38;;;-2.39;67.61
46583;BME280;32309;48.858;8.252;2023-02-28T02:53:24;101119.50;;;-2.41;68.00
46583;BME280;32309;48.858;8.252;2023-02-28T02:55:27;101116.13;;;-2.40;68.42
46583;BME280;32309;48.858;8.252;2023-02-28T02:57:33;101120.38;;;-2.39;67.57
46583;BME280;32309;48.858;8.252;2023-02-28T02:59:38;101117.78;;;-2.44;67.86
46583;BME280;32309;48.858;8.252;2023-02-28T03:01:40;101125.34;;;-2.50;68.73
46583;BME280;32309;48.858;8.252;2023-02-28T03:03:41;101121.91;;;-2.52;68.51
46583;BME280;32309;48.858;8.252;2023-02-28T03:05:47;101117.69;;;-2.55;68.59
46583;BME280;32309;48.858;8.252;2023-02-28T03:07:49;101114.28;;;-2.54;68.25
46583;BME280;32309;48.858;8.252;2023-02-28T03:09:53;101121.88;;;-2.58;69.04
46583;BME280;32309;48.858;8.252;2023-02-28T03:11:55;101129.53;;;-2.55;68.93
46583;BME280;32309;48.858;8.252;2023-02-28T03:16:23;101118.53;;;-2.56;68.90
46583;BME280;32309;48.858;8.252;2023-02-28T03:18:32;101121.16;;;-2.48;68.42
46583;BME280;32309;48.858;8.252;2023-02-28T03:27:29;101123.53;;;-2.62;68.83
46583;BME280;32309;48.858;8.252;2023-02-28T03:29:37;101116.81;;;-2.58;68.76
46583;BME280;32309;48.858;8.252;2023-02-28T03:31:50;101120.97;;;-2.63;69.57
46583;BME280;32309;48.858;8.252;2023-02-28T03:34:03;101114.19;;;-2.66;69.80
46583;BME280;32309;48.858;8.252;2023-02-28T03:36:07;101114.19;;;-2.66;69.19
46583;BME280;32309;48.858;8.252;2023-02-28T03:40:17;101116.72;;;-2.68;69.95
46583;BME280;32309;48.858;8.252;2023-02-28T03:42:22;101104.81;;;-2.72;70.27
46583;BME280;32309;48.858;8.252;2023-02-28T03:44:29;101109.94;;;-2.67;70.10
46583;BME280;32309;48.858;8.252;2023-02-28T03:46:35;101108.22;;;-2.68;69.69
46583;BME280;32309;48.858;8.252;2023-02-28T03:48:45;101111.66;;;-2.63;70.14
46583;BME280;32309;48.858;8.252;2023-02-28T03:50:54;101111.66;;;-2.66;69.89
46583;BME280;32309;48.858;8.252;2023-02-28T03:52:59;101113.38;;;-2.63;70.77
46583;BME280;32309;48.858;8.252;2023-02-28T03:55:06;101107.47;;;-2.59;69.65
46583;BME280;32309;48.858;8.252;2023-02-28T03:57:17;101115.91;;;-2.62;69.93
46583;BME280;32309;48.858;8.252;2023-02-28T03:59:22;101114.28;;;-2.55;69.93
46583;BME280;32309;48.858;8.252;2023-02-28T04:01:40;101108.38;;;-2.57;70.31
46583;BME280;32309;48.858;8.252;2023-02-28T04:03:43;101110.09;;;-2.53;70.58
46583;BME280;32309;48.858;8.252;2023-02-28T04:05:48;101104.97;;;-2.56;69.75
46583;BME280;32309;48.858;8.252;2023-02-28T04:07:52;101109.28;;;-2.51;70.16
46583;BME280;32309;48.858;8.252;2023-02-28T04:09:52;101109.28;;;-2.47;70.95
46583;BME280;32309;48.858;8.252;2023-02-28T04:11:53;101105.09;;;-2.44;69.79
46583;BME280;32309;48.858;8.252;2023-02-28T04:13:53;101105.19;;;-2.36;69.83
46583;BME280;32309;48.858;8.252;2023-02-28T04:15:53;101100.94;;;-2.37;70.02
46583;BME280;32309;48.858;8.252;2023-02-28T04:17:54;101105.13;;;-2.41;69.95
46583;BME280;32309;48.858;8.252;2023-02-28T04:19:54;101106.81;;;-2.40;70.76
46583;BME280;32309;48.858;8.252;2023-02-28T04:21:56;101110.22;;;-2.38;70.26
46583;BME280;32309;48.858;8.252;2023-02-28T04:23:56;101105.19;;;-2.35;69.94
46583;BME280;32309;48.858;8.252;2023-02-28T04:26:00;101107.75;;;-2.33;70.33
46583;BME280;32309;48.858;8.252;2023-02-28T04:28:00;101112.06;;;-2.23;70.30
46583;BME280;32309;48.858;8.252;2023-02-28T04:30:00;101114.59;;;-2.24;70.23
46583;BME280;32309;48.858;8.252;2023-02-28T04:32:01;101112.84;;;-2.30;70.64
46583;BME280;32309;48.858;8.252;2023-02-28T04:34:02;101103.53;;;-2.29;70.21
46583;BME280;32309;48.858;8.252;2023-02-28T04:36:04;101111.28;;;-2.14;69.97
46583;BME280;32309;48.858;8.252;2023-02-28T04:38:07;101102.75;;;-2.19;69.86
46583;BME280;32309;48.858;8.252;2023-02-28T04:40:07;101101.91;;;-2.21;69.93
46583;BME280;32309;48.858;8.252;2023-02-28T04:42:08;101105.28;;;-2.21;70.28
46583;BME280;32309;48.858;8.252;2023-02-28T04:44:08;101111.19;;;-2.25;70.41
46583;BME280;32309;48.858;8.252;2023-02-28T04:46:09;101101.91;;;-2.21;69.93
46583;BME280;32309;48.858;8.252;2023-02-28T04:48:09;101104.47;;;-2.18;70.50
46583;BME280;32309;48.858;8.252;2023-02-28T04:50:10;101110.31;;;-2.28;70.62
46583;BME280;32309;48.858;8.252;2023-02-28T04:52:10;101106.03;;;-2.34;70.63
46583;BME280;32309;48.858;8.252;2023-02-28T04:54:11;101106.84;;;-2.35;70.79
46583;BME280;32309;48.858;8.252;2023-02-28T04:56:12;101111.16;;;-2.31;70.64
46583;BME280;32309;48.858;8.252;2023-02-28T04:58:15;101103.53;;;-2.29;70.23
46583;BME280;32309;48.858;8.252;2023-02-28T05:00:16;101108.63;;;-2.29;70.68
46583;BME280;32309;48.858;8.252;2023-02-28T05:02:16;101115.44;;;-2.24;70.15
46583;BME280;32309;48.858;8.252;2023-02-28T05:04:17;101116.31;;;-2.22;70.02
46583;BME280;32309;48.858;8.252;2023-02-28T05:06:18;101118.00;;;-2.21;70.07
46583;BME280;32309;48.858;8.252;2023-02-28T05:08:20;101119.63;;;-2.26;70.73
46583;BME280;32309;48.858;8.252;2023-02-28T05:10:21;101122.25;;;-2.18;70.04
46583;BME280;32309;48.858;8.252;2023-02-28T05:12:22;101121.41;;;-2.15;70.27
46583;BME280;32309;48.858;8.252;2023-02-28T05:14:22;101123.13;;;-2.14;70.36
46583;BME280;32309;48.858;8.252;2023-02-28T05:16:22;101125.69;;;-2.11;69.73
46583;BME280;32309;48.858;8.252;2023-02-28T05:18:23;101124.84;;;-2.15;69.97
46583;BME280;32309;48.858;8.252;2023-02-28T05:20:23;101123.88;;;-2.25;70.43
46583;BME280;32309;48.858;8.252;2023-02-28T05:22:23;101123.94;;;-2.20;70.25
46583;BME280;32309;48.858;8.252;2023-02-28T05:24:24;101129.88;;;-2.17;69.71
46583;BME280;32309;48.858;8.252;2023-02-28T05:26:24;101127.38;;;-2.13;70.09
46583;BME280;32309;48.858;8.252;2023-02-28T05:28:25;101124.84;;;-2.13;70.11
46583;BME280;32309;48.858;8.252;2023-02-28T05:30:25;101123.06;;;-2.24;70.29
46583;BME280;32309;48.858;8.252;2023-02-28T05:32:26;101125.59;;;-2.22;70.19
46583;BME280;32309;48.858;8.252;2023-02-28T05:34:26;101122.22;;;-2.24;70.84
46583;BME280;32309;48.858;8.252;2023-02-28T05:36:26;101123.06;;;-2.24;70.19
46583;BME280;32309;48.858;8.252;2023-02-28T05:38:26;101117.13;;;-2.24;70.56
46583;BME280;32309;48.858;8.252;2023-02-28T05:40:27;101119.78;;;-2.12;69.59
46583;BME280;32309;48.858;8.252;2023-02-28T05:42:27;101124.84;;;-2.10;69.90
46583;BME280;32309;48.858;8.252;2023-02-28T05:44:28;101121.50;;;-2.05;69.37
46583;BME280;32309;48.858;8.252;2023-02-28T05:46:28;101122.31;;;-2.13;69.51
46583;BME280;32309;48.858;8.252;2023-02-28T05:48:28;101119.78;;;-2.07;70.01
46583;BME280;32309;48.858;8.252;2023-02-28T05:50:28;101115.50;;;-2.18;70.61
46583;BME280;32309;48.858;8.252;2023-02-28T05:52:29;101117.22;;;-2.15;70.24
46583;BME280;32309;48.858;8.252;2023-02-28T05:54:32;101123.97;;;-2.14;70.54
46583;BME280;32309;48.858;8.252;2023-02-28T05:56:32;101120.59;;;-2.14;70.65
46583;BME280;32309;48.858;8.252;2023-02-28T05:58:34;101118.09;;;-2.10;70.36
46583;BME280;32309;48.858;8.252;2023-02-28T06:00:37;101115.53;;;-2.13;70.22
46583;BME280;32309;48.858;8.252;2023-02-28T06:02:38;101123.06;;;-2.19;71.05
46583;BME280;32309;48.858;8.252;2023-02-28T06:04:39;101123.13;;;-2.18;70.58
46583;BME280;32309;48.858;8.252;2023-02-28T06:06:40;101125.59;;;-2.21;70.59
46583;BME280;32309;48.858;8.252;2023-02-28T06:08:41;101126.44;;;-2.23;71.45
46583;BME280;32309;48.858;8.252;2023-02-28T06:10:43;101122.25;;;-2.18;71.05
46583;BME280;32309;48.858;8.252;2023-02-28T06:12:43;101125.66;;;-2.16;71.07
46583;BME280;32309;48.858;8.252;2023-02-28T06:14:44;101129.09;;;-2.11;71.12
46583;BME280;32309;48.858;8.252;2023-02-28T06:16:44;101132.53;;;-2.06;71.09
46583;BME280;32309;48.858;8.252;2023-02-28T06:18:45;101135.03;;;-2.10;70.86
46583;BME280;32309;48.858;8.252;2023-02-28T06:20:51;101141.75;;;-2.14;71.62
46583;BME280;32309;48.858;8.252;2023-02-28T06:22:55;101139.22;;;-2.14;71.56
46583;BME280;32309;48.858;8.252;2023-02-28T06:24:58;101141.78;;;-2.11;71.71
46583;BME280;32309;48.858;8.252;2023-02-28T06:26:59;101147.78;;;-2.01;71.15
46583;BME280;32309;48.858;8.252;2023-02-28T06:29:04;101142.72;;;-2.01;71.25
46583;BME280;32309;48.858;8.252;2023-02-28T06:31:08;101145.25;;;-2.04;71.10
46583;BME280;32309;48.858;8.252;2023-02-28T06:33:10;101142.75;;;-1.98;70.75
46583;BME280;32309;48.858;8.252;2023-02-28T06:35:10;101142.69;;;-2.06;71.64
46583;BME280;32309;48.858;8.252;2023-02-28T06:37:10;101143.59;;;-1.99;71.59
46583;BME280;32309;48.858;8.252;2023-02-28T06:39:11;101149.53;;;-1.95;71.56
46583;BME280;32309;48.858;8.252;2023-02-28T06:41:14;101146.16;;;-1.93;71.16
46583;BME280;32309;48.858;8.252;2023-02-28T06:43:14;101151.25;;;-1.93;71.41
46583;BME280;32309;48.858;8.252;2023-02-28T06:45:15;101152.94;;;-1.93;71.37
46583;BME280;32309;48.858;8.252;2023-02-28T06:47:15;101153.03;;;-1.84;71.04
46583;BME280;32309;48.858;8.252;2023-02-28T06:49:15;101155.53;;;-1.89;70.95
46583;BME280;32309;48.858;8.252;2023-02-28T06:51:17;101159.81;;;-1.85;71.38
46583;BME280;32309;48.858;8.252;2023-02-28T06:53:20;101163.19;;;-1.84;71.20
46583;BME280;32309;48.858;8.252;2023-02-28T06:55:20;101167.38;;;-1.88;71.18
46583;BME280;32309;48.858;8.252;2023-02-28T06:57:20;101163.22;;;-1.79;71.09
46583;BME280;32309;48.858;8.252;2023-02-28T06:59:21;101179.41;;;-1.70;70.97
46583;BME280;32309;48.858;8.252;2023-02-28T07:01:21;101173.53;;;-1.61;69.83
46583;BME280;32309;48.858;8.252;2023-02-28T07:03:23;101172.66;;;-1.64;70.36
46583;BME280;32309;48.858;8.252;2023-02-28T07:05:24;101169.28;;;-1.60;70.41
46583;BME280;32309;48.858;8.252;2023-02-28T07:07:24;101180.34;;;-1.58;70.10
46583;BME280;32309;48.858;8.252;2023-02-28T07:09:24;101182.00;;;-1.57;70.11
46583;BME280;32309;48.858;8.252;2023-02-28T07:11:29;101176.09;;;-1.53;69.86
46583;BME280;32309;48.858;8.252;2023-02-28T07:13:29;101177.03;;;-1.45;69.69
46583;BME280;32309;48.858;8.252;2023-02-28T07:15:30;101178.66;;;-1.53;70.04
46583;BME280;32309;48.858;8.252;2023-02-28T07:17:30;101180.41;;;-1.49;69.74
46583;BME280;32309;48.858;8.252;2023-02-28T07:19:31;101170.25;;;-1.43;69.56
46583;BME280;32309;48.858;8.252;2023-02-28T07:21:31;101176.19;;;-1.44;69.40
46583;BME280;32309;48.858;8.252;2023-02-28T07:23:31;101172.78;;;-1.46;69.81
46583;BME280;32309;48.858;8.252;2023-02-28T07:25:32;101172.78;;;-1.46;69.63
46583;BME280;32309;48.858;8.252;2023-02-28T07:27:32;101177.94;;;-1.35;69.30
46583;BME280;32309;48.858;8.252;2023-02-28T07:29:34;101172.84;;;-1.37;69.54
46583;BME280;32309;48.858;8.252;2023-02-28T07:31:34;101178.75;;;-1.36;69.44
46583;BME280;32309;48.858;8.252;2023-02-28T07:33:34;101172.06;;;-1.25;68.91
46583;BME280;32309;48.858;8.252;2023-02-28T07:35:35;101174.66;;;-1.15;68.11
46583;BME280;32309;48.858;8.252;2023-02-28T07:37:35;101171.25;;;-1.21;68.73
46583;BME280;32309;48.858;8.252;2023-02-28T07:39:38;101171.22;;;-1.24;68.94
46583;BME280;32309;48.858;8.252;2023-02-28T07:41:41;101178.88;;;-1.18;68.72
46583;BME280;32309;48.858;8.252;2023-02-28T07:43:43;101180.63;;;-1.12;68.43
46583;BME280;32309;48.858;8.252;2023-02-28T07:45:44;101186.59;;;-1.01;67.86
46583;BME280;32309;48.858;8.252;2023-02-28T07:47:45;101181.53;;;-0.97;67.61
46583;BME280;32309;48.858;8.252;2023-02-28T07:49:45;101183.25;;;-0.95;67.39
46583;BME280;32309;48.858;8.252;2023-02-28T07:51:46;101180.72;;;-0.89;66.89
46583;BME280;32309;48.858;8.252;2023-02-28T07:53:46;101173.94;;;-0.90;67.04
46583;BME280;32309;48.858;8.252;2023-02-28T07:55:46;101178.22;;;-0.86;66.40
46583;BME280;32309;48.858;8.252;2023-02-28T07:57:47;101179.88;;;-0.88;66.82
46583;BME280;32309;48.858;8.252;2023-02-28T07:59:47;101176.50;;;-0.88;66.96
46583;BME280;32309;48.858;8.252;2023-02-28T08:01:47;101171.38;;;-0.91;67.50
46583;BME280;32309;48.858;8.252;2023-02-28T08:03:50;101177.34;;;-0.85;66.94
46583;BME280;32309;48.858;8.252;2023-02-28T08:05:50;101185.00;;;-0.77;66.40
46583;BME280;32309;48.858;8.252;2023-02-28T08:07:52;101185.88;;;-0.70;66.00
46583;BME280;32309;48.858;8.252;2023-02-28T08:09:53;101185.88;;;-0.75;66.10
46583;BME280;32309;48.858;8.252;2023-02-28T08:11:53;101180.78;;;-0.76;66.40
46583;BME280;32309;48.858;8.252;2023-02-28T08:13:54;101187.59;;;-0.71;65.89
46583;BME280;32309;48.858;8.252;2023-02-28T08:15:55;101185.03;;;-0.69;65.95
46583;BME280;32309;48.858;8.252;2023-02-28T08:17:56;101188.47;;;-0.67;65.52
46583;BME280;32309;48.858;8.252;2023-02-28T08:19:56;101190.16;;;-0.61;65.23
46583;BME280;32309;48.858;8.252;2023-02-28T08:21:57;101194.38;;;-0.63;65.19
46583;BME280;32309;48.858;8.252;2023-02-28T08:23:58;101196.09;;;-0.67;65.47
46583;BME280;32309;48.858;8.252;2023-02-28T08:25:59;101200.34;;;-0.64;64.97
46583;BME280;32309;48.858;8.252;2023-02-28T08:27:59;101205.44;;;-0.64;65.27
46583;BME280;32309;48.858;8.252;2023-02-28T08:30:00;101195.22;;;-0.68;65.22
46583;BME280;32309;48.858;8.252;2023-02-28T08:32:00;101202.03;;;-0.68;65.48
46583;BME280;32309;48.858;8.252;2023-02-28T08:34:07;101197.78;;;-0.72;65.69
46583;BME280;32309;48.858;8.252;2023-02-28T08:36:08;101203.72;;;-0.62;65.22
46583;BME280;32309;48.858;8.252;2023-02-28T08:38:09;101206.28;;;-0.69;65.81
46583;BME280;32309;48.858;8.252;2023-02-28T08:40:09;101197.81;;;-0.61;65.37
46583;BME280;32309;48.858;8.252;2023-02-28T08:42:10;101192.75;;;-0.57;65.08
46583;BME280;32309;48.858;8.252;2023-02-28T08:44:11;101200.38;;;-0.54;64.72
46583;BME280;32309;48.858;8.252;2023-02-28T08:46:12;101202.06;;;-0.59;65.08
46583;BME280;32309;48.858;8.252;2023-02-28T08:48:13;101203.75;;;-0.53;65.03
46583;BME280;32309;48.858;8.252;2023-02-28T08:50:14;101202.06;;;-0.56;65.36
46583;BME280;32309;48.858;8.252;2023-02-28T08:52:14;101201.22;;;-0.52;65.25
46583;BME280;32309;48.858;8.252;2023-02-28T08:54:15;101196.16;;;-0.48;64.96
46583;BME280;32309;48.858;8.252;2023-02-28T08:56:19;101194.47;;;-0.42;64.50
46583;BME280;32309;48.858;8.252;2023-02-28T08:58:20;101196.16;;;-0.42;64.30
46583;BME280;32309;48.858;8.252;2023-02-28T09:00:20;101198.69;;;-0.44;64.26
46583;BME280;32309;48.858;8.252;2023-02-28T09:02:21;101202.13;;;-0.40;64.24
46583;BME280;32309;48.858;8.252;2023-02-28T09:04:22;101196.13;;;-0.52;64.88
46583;BME280;32309;48.858;8.252;2023-02-28T09:06:25;101202.09;;;-0.46;64.53
46583;BME280;32309;48.858;8.252;2023-02-28T09:08:27;101203.78;;;-0.42;64.20
46583;BME280;32309;48.858;8.252;2023-02-28T09:10:30;101206.34;;;-0.42;64.13
46583;BME280;32309;48.858;8.252;2023-02-28T09:12:32;101200.41;;;-0.47;64.12
46583;BME280;32309;48.858;8.252;2023-02-28T09:14:34;101208.84;;;-0.53;64.67
46583;BME280;32309;48.858;8.252;2023-02-28T09:16:34;101209.72;;;-0.46;64.54
46583;BME280;32309;48.858;8.252;2023-02-28T09:18:35;101207.22;;;-0.37;64.09
46583;BME280;32309;48.858;8.252;2023-02-28T09:20:39;101203.78;;;-0.42;64.06
46583;BME280;32309;48.858;8.252;2023-02-28T09:22:39;101204.66;;;-0.42;64.13
46583;BME280;32309;48.858;8.252;2023-02-28T09:24:40;101210.63;;;-0.34;63.62
46583;BME280;32309;48.858;8.252;2023-02-28T09:26:40;101209.78;;;-0.32;63.56
46583;BME280;32309;48.858;8.252;2023-02-28T09:28:41;101200.44;;;-0.38;63.85
46583;BME280;32309;48.858;8.252;2023-02-28T09:30:41;101204.66;;;-0.42;64.21
46583;BME280;32309;48.858;8.252;2023-02-28T09:32:41;101193.63;;;-0.47;64.62
46583;BME280;32309;48.858;8.252;2023-02-28T09:34:42;101192.75;;;-0.40;64.36
46583;BME280;32309;48.858;8.252;2023-02-28T09:36:42;101200.44;;;-0.35;63.96
46583;BME280;32309;48.858;8.252;2023-02-28T09:38:43;101198.75;;;-0.31;64.19
46583;BME280;32309;48.858;8.252;2023-02-28T09:40:47;101208.91;;;-0.35;64.25
46583;BME280;32309;48.858;8.252;2023-02-28T09:42:50;101199.59;;;-0.22;63.22
46583;BME280;32309;48.858;8.252;2023-02-28T09:44:53;101206.41;;;-0.19;63.01
46583;BME280;32309;48.858;8.252;2023-02-28T09:46:55;101207.28;;;-0.12;62.50
46583;BME280;32309;48.858;8.252;2023-02-28T09:49:05;101212.34;;;-0.19;63.14
46583;BME280;32309;48.858;8.252;2023-02-28T09:51:26;101209.81;;;-0.17;63.37
46583;BME280;32309;48.858;8.252;2023-02-28T09:53:34;101211.50;;;-0.16;63.62
46583;BME280;32309;48.858;8.252;2023-02-28T09:55:39;101210.66;;;-0.15;63.83
46583;BME280;32309;48.858;8.252;2023-02-28T09:57:42;101218.31;;;-0.04;63.18
46583;BME280;32309;48.858;8.252;2023-02-28T10:06:33;101214.09;;;0.07;62.56
46583;BME280;32309;48.858;8.252;2023-02-28T10:08:53;101216.66;;;0.15;62.27
46583;BME280;32309;48.858;8.252;2023-02-28T10:11:00;101220.91;;;0.24;61.49
46583;BME280;32309;48.858;8.252;2023-02-28T10:15:32;101212.41;;;0.31;61.56
46583;BME280;32309;48.858;8.252;2023-02-28T10:17:37;101220.91;;;0.27;61.57
46583;BME280;32309;48.858;8.252;2023-02-28T10:19:42;101213.25;;;0.28;61.60
46583;BME280;32309;48.858;8.252;2023-02-28T10:21:46;101213.25;;;0.30;61.85
46583;BME280;32309;48.858;8.252;2023-02-28T10:24:04;101219.22;;;0.41;61.31
46583;BME280;32309;48.858;8.252;2023-02-28T10:26:32;101220.91;;;0.36;61.59
46583;BME280;32309;48.858;8.252;2023-02-28T10:28:33;101226.84;;;0.46;61.01
46583;BME280;32309;48.858;8.252;2023-02-28T10:30:33;101217.50;;;0.51;60.85
46583;BME280;32309;48.858;8.252;2023-02-28T10:32:34;101225.16;;;0.66;59.95
46583;BME280;32309;48.858;8.252;2023-02-28T10:34:37;101220.06;;;0.59;60.58
46583;BME280;32309;48.858;8.252;2023-02-28T10:36:38;101231.09;;;0.64;59.97
46583;BME280;32309;48.858;8.252;2023-02-28T10:38:38;101226.84;;;0.63;60.61
46583;BME280;32309;48.858;8.252;2023-02-28T10:40:39;101226.84;;;0.69;60.11
46583;BME280;32309;48.858;8.252;2023-02-28T10:42:54;101219.16;;;0.81;59.23
46583;BME280;32309;48.858;8.252;2023-02-28T10:45:05;101222.56;;;0.83;58.38
46583;BME280;32309;48.858;8.252;2023-02-28T10:47:16;101220.00;;;0.91;58.31
46583;BME280;32309;48.858;8.252;2023-02-28T10:49:28;101218.31;;;0.96;57.38
46583;BME280;32309;48.858;8.252;2023-02-28T10:51:37;101225.97;;;0.92;57.34
46583;BME280;32309;48.858;8.252;2023-02-28T10:53:39;101222.53;;;1.01;56.81
46583;BME280;32309;48.858;8.252;2023-02-28T10:56:01;101226.81;;;0.91;57.60
46583;BME280;32309;48.858;8.252;2023-02-28T10:58:02;101225.94;;;0.93;56.97
46583;BME280;32309;48.858;8.252;2023-02-28T11:00:12;101223.41;;;0.93;57.53
46583;BME280;32309;48.858;8.252;2023-02-28T11:02:29;101219.97;;;0.97;56.85
46583;BME280;32309;48.858;8.252;2023-02-28T11:04:33;101230.19;;;0.96;57.89
46583;BME280;32309;48.858;8.252;2023-02-28T11:06:39;101218.28;;;0.99;57.06
46583;BME280;32309;48.858;8.252;2023-02-28T11:08:47;101223.38;;;1.09;56.62
46583;BME280;32309;48.858;8.252;2023-02-28T11:10:55;101218.25;;;1.09;57.50
46583;BME280;32309;48.858;8.252;2023-02-28T11:12:57;101225.94;;;1.06;57.72
46583;BME280;32309;48.858;8.252;2023-02-28T11:15:00;101219.94;;;1.13;56.74
46583;BME280;32309;48.858;8.252;2023-02-28T11:17:12;101219.88;;;1.31;55.17
46583;BME280;32309;48.858;8.252;2023-02-28T11:19:20;101223.31;;;1.20;55.99
46583;BME280;32309;48.858;8.252;2023-02-28T11:23:34;101208.84;;;1.23;55.86
46583;BME280;32309;48.858;8.252;2023-02-28T11:25:37;101202.88;;;1.24;56.12